CLH2 weather

Stettler (Health Centre) Heliport
Stettler, Alberta, Canada

Public forecast

Using degrees Celsius for public forecast. Weather courtesy of forecast.io.

METAR (pilot weather report)

Closest report is Red Deer Regional Airport, 43.8 nm (81.1 km) W. Retrieved 2019/09/18 08:00 UTC (18 minutes ago):

CYQF 180800Z 34003KT 330V050 15SM SCT080 05/05 A2983 RMK AC4 SLP120

TAF (pilot weather forecast)

Closest forecast is Red Deer Regional Airport, 43.8 nm (81.1 km) W. Retrieved 2019/09/18 06:42 UTC (2 hours ago):

TAF CYQF 180538Z 1806/1818 VRB03KT P6SM FEW030 SCT080 FM180700 VRB03KT 6SM BR FEW060 TEMPO 1808/1816 1SM BR SCT004 PROB40 1810/1815 1/4SM FG VV002 FM181600 VRB03KT P6SM SCT006 TEMPO 1816/1818 5SM BR BKN006 RMK NXT FCST BY 181200Z